Time;durP1;ratioP1;P1;durP2;ratioP2;P2;SDS_P1;SDS_P2;PMS_P1;PMS_P2;Temp;Humidity;BMP_temperature;BMP_pressure;BME280_temperature;BME280_humidity;BME280_pressure;Samples;Min_cycle;Max_cycle;Signal;HPM_P1;HPM_P2
2021/08/17 00:00:24;;;;;;;25.43;19.80;;;18.30;99.90;;;;;;4838113;29;20190;-87
2021/08/17 00:03:05;;;;;;;27.80;20.77;;;18.50;99.90;;;;;;4831885;29;20532;-83
2021/08/17 00:05:34;;;;;;;27.77;21.07;;;18.50;99.90;;;;;;4821904;29;20230;-88
2021/08/17 00:08:04;;;;;;;23.80;19.27;;;18.50;99.90;;;;;;4822164;29;20217;-85
2021/08/17 00:10:33;;;;;;;22.17;18.30;;;18.50;99.90;;;;;;4833227;29;20203;-88
2021/08/17 00:13:02;;;;;;;25.93;19.43;;;18.40;99.90;;;;;;4824377;29;20202;-88
2021/08/17 00:15:34;;;;;;;27.50;20.47;;;18.40;99.90;;;;;;4822116;29;20325;-87
2021/08/17 00:18:04;;;;;;;20.23;17.73;;;18.40;99.90;;;;;;4827545;29;20271;-86
2021/08/17 00:20:33;;;;;;;23.30;18.33;;;18.40;99.90;;;;;;4822497;29;20207;-87
2021/08/17 00:23:02;;;;;;;23.03;18.93;;;18.40;99.90;;;;;;4819431;29;22784;-88
2021/08/17 00:25:31;;;;;;;23.23;18.87;;;18.40;99.90;;;;;;4833509;29;20214;-87
2021/08/17 00:28:00;;;;;;;23.37;18.97;;;18.40;99.90;;;;;;4830255;29;20198;-87
2021/08/17 00:30:29;;;;;;;25.37;19.77;;;18.40;99.90;;;;;;4825189;29;20190;-91
2021/08/17 00:32:58;;;;;;;25.13;20.20;;;18.40;99.90;;;;;;4837793;29;20217;-85
2021/08/17 00:35:28;;;;;;;24.57;19.47;;;18.40;99.90;;;;;;4821342;29;20235;-86
2021/08/17 00:37:57;;;;;;;24.47;18.90;;;18.30;99.90;;;;;;4818974;29;20207;-86
2021/08/17 00:40:26;;;;;;;20.17;17.50;;;18.30;99.90;;;;;;4831575;29;20217;-86
2021/08/17 00:42:55;;;;;;;20.07;17.63;;;18.40;99.90;;;;;;4815091;29;20234;-87
2021/08/17 00:45:26;;;;;;;19.80;16.27;;;18.40;99.90;;;;;;4832819;29;20214;-83
2021/08/17 00:47:56;;;;;;;16.83;14.97;;;18.50;99.90;;;;;;4835941;29;20197;-86
2021/08/17 00:50:29;;;;;;;16.60;14.90;;;18.50;99.90;;;;;;4823178;29;20242;-84
2021/08/17 00:53:01;;;;;;;15.97;14.27;;;18.50;99.90;;;;;;4834136;29;20241;-86
2021/08/17 00:55:31;;;;;;;17.80;14.83;;;18.50;99.90;;;;;;4820357;29;20210;-84
2021/08/17 00:58:01;;;;;;;15.53;13.87;;;18.50;99.90;;;;;;4822582;29;20568;-86
2021/08/17 01:00:30;;;;;;;18.70;14.83;;;18.50;99.90;;;;;;4834273;29;20214;-83
2021/08/17 01:02:59;;;;;;;16.00;14.30;;;18.50;99.90;;;;;;4839352;29;20207;-86
2021/08/17 01:05:31;;;;;;;15.77;14.17;;;18.50;99.90;;;;;;4825038;29;20267;-84
2021/08/17 01:08:00;;;;;;;16.00;14.23;;;18.40;99.90;;;;;;4834606;29;20229;-87
2021/08/17 01:10:30;;;;;;;15.63;14.03;;;18.40;99.90;;;;;;4840135;29;20206;-87
2021/08/17 01:12:59;;;;;;;14.87;13.30;;;18.30;99.90;;;;;;4824987;29;20210;-87
2021/08/17 01:15:29;;;;;;;18.13;15.37;;;18.30;99.90;;;;;;4833632;29;20263;-85
2021/08/17 01:17:59;;;;;;;17.80;14.87;;;18.30;99.90;;;;;;4831893;29;20214;-85
2021/08/17 01:20:32;;;;;;;17.13;14.83;;;18.30;99.90;;;;;;4823657;29;20209;-85
2021/08/17 01:23:02;;;;;;;17.10;14.67;;;18.20;99.90;;;;;;4826103;29;20218;-87
2021/08/17 01:25:35;;;;;;;19.37;16.10;;;18.20;99.90;;;;;;4818901;29;20237;-88
2021/08/17 01:28:05;;;;;;;18.90;14.67;;;18.20;99.90;;;;;;4819188;29;20221;-87
2021/08/17 01:30:34;;;;;;;19.00;16.67;;;18.20;99.90;;;;;;4821852;29;20210;-88
2021/08/17 01:33:03;;;;;;;19.37;15.80;;;18.20;99.90;;;;;;4824719;29;20214;-88
2021/08/17 01:35:32;;;;;;;20.27;16.37;;;18.20;99.90;;;;;;4828954;29;20233;-87
2021/08/17 01:38:04;;;;;;;21.43;15.93;;;18.10;99.90;;;;;;4819590;29;20211;-86
2021/08/17 01:40:35;;;;;;;20.50;16.07;;;18.10;99.90;;;;;;4829544;29;20194;-87
2021/08/17 01:43:04;;;;;;;19.30;16.27;;;18.10;99.90;;;;;;4842356;29;20198;-87
2021/08/17 01:45:34;;;;;;;20.17;15.67;;;18.10;99.90;;;;;;4828319;29;20183;-83
2021/08/17 01:48:03;;;;;;;15.53;13.93;;;18.00;99.90;;;;;;4824352;29;20202;-85
2021/08/17 01:50:32;;;;;;;17.33;14.70;;;18.00;99.90;;;;;;4844029;29;20235;-88
2021/08/17 01:53:01;;;;;;;17.33;14.87;;;17.90;99.90;;;;;;4826831;29;20258;-88
2021/08/17 01:55:31;;;;;;;21.87;16.23;;;17.90;99.90;;;;;;4830799;29;20214;-91
2021/08/17 01:58:04;;;;;;;24.37;16.80;;;17.90;99.90;;;;;;4831109;29;20186;-86
2021/08/17 02:00:33;;;;;;;23.40;17.67;;;17.90;99.90;;;;;;4832624;29;20217;-87
2021/08/17 02:03:02;;;;;;;19.13;15.83;;;18.00;99.90;;;;;;4830547;29;20212;-84
2021/08/17 02:05:35;;;;;;;18.37;16.23;;;17.90;99.90;;;;;;4837827;29;20202;-90
2021/08/17 02:08:05;;;;;;;19.20;16.60;;;17.90;99.90;;;;;;4828171;29;20274;-88
2021/08/17 02:10:34;;;;;;;22.57;16.13;;;17.80;99.90;;;;;;4826890;29;20190;-86
2021/08/17 02:13:05;;;;;;;21.70;16.67;;;17.70;99.90;;;;;;4834026;29;20202;-85
2021/08/17 02:15:35;;;;;;;19.00;16.97;;;17.70;99.90;;;;;;4826779;29;20203;-86
2021/08/17 02:18:04;;;;;;;19.63;17.17;;;17.60;99.90;;;;;;4825548;29;20298;-87
2021/08/17 02:20:33;;;;;;;20.07;16.90;;;17.60;99.90;;;;;;4831968;29;20236;-86
2021/08/17 02:23:02;;;;;;;22.13;18.23;;;17.50;99.90;;;;;;4821925;29;20707;-84
2021/08/17 02:25:31;;;;;;;22.67;17.13;;;17.50;99.90;;;;;;4833437;29;20198;-85
2021/08/17 02:28:00;;;;;;;24.77;18.67;;;17.50;99.90;;;;;;4836389;29;20222;-88
2021/08/17 02:30:30;;;;;;;25.73;19.30;;;17.50;99.90;;;;;;4830881;29;20187;-86
2021/08/17 02:32:59;;;;;;;24.90;19.33;;;17.40;99.90;;;;;;4835979;29;20221;-89
2021/08/17 02:35:27;;;;;;;27.27;19.80;;;17.40;99.90;;;;;;4839540;29;20232;-85
2021/08/17 02:37:57;;;;;;;29.07;20.40;;;17.40;99.90;;;;;;4847081;29;20270;-87
2021/08/17 02:40:26;;;;;;;24.83;18.60;;;17.40;99.90;;;;;;4822316;29;20428;-90
2021/08/17 02:42:57;;;;;;;21.97;17.97;;;17.40;99.90;;;;;;4813619;29;20211;-85
2021/08/17 02:45:27;;;;;;;21.43;17.40;;;17.40;99.90;;;;;;4833183;29;20207;-86
2021/08/17 02:47:59;;;;;;;21.13;17.27;;;17.30;99.90;;;;;;4830533;29;20296;-85
2021/08/17 02:50:29;;;;;;;18.77;15.87;;;17.20;99.90;;;;;;4833710;29;20202;-86
2021/08/17 02:52:58;;;;;;;20.13;16.43;;;17.00;99.90;;;;;;4834274;29;20211;-86
2021/08/17 02:55:28;;;;;;;18.47;15.30;;;17.10;99.90;;;;;;4833877;29;20214;-85
2021/08/17 02:58:03;;;;;;;18.03;14.27;;;17.10;99.90;;;;;;4821427;29;20245;-90
2021/08/17 03:00:35;;;;;;;16.63;14.93;;;17.10;99.90;;;;;;4836847;29;20210;-86
2021/08/17 03:03:06;;;;;;;19.00;14.93;;;17.00;99.90;;;;;;4828709;29;20240;-88
2021/08/17 03:05:38;;;;;;;18.23;15.33;;;17.00;99.90;;;;;;4825440;29;20445;-86
2021/08/17 03:08:07;;;;;;;18.07;15.73;;;17.00;99.90;;;;;;4832409;29;20201;-87
2021/08/17 03:10:38;;;;;;;19.93;15.37;;;17.00;99.90;;;;;;4836239;29;20194;-87
2021/08/17 03:13:09;;;;;;;20.43;16.10;;;16.90;99.90;;;;;;4833334;29;20206;-87
2021/08/17 03:15:39;;;;;;;19.53;15.83;;;16.90;99.90;;;;;;4842156;29;20191;-84
2021/08/17 03:18:12;;;;;;;21.17;16.33;;;16.90;99.90;;;;;;4830564;29;20249;-88
2021/08/17 03:20:41;;;;;;;20.97;16.67;;;16.80;99.90;;;;;;4834561;29;20271;-89
2021/08/17 03:23:13;;;;;;;19.13;16.03;;;16.70;99.90;;;;;;4817993;29;20207;-86
2021/08/17 03:25:43;;;;;;;21.83;16.23;;;16.70;99.90;;;;;;4836661;29;20204;-87
2021/08/17 03:28:11;;;;;;;22.97;17.67;;;16.70;99.90;;;;;;4837569;29;20338;-86
2021/08/17 03:30:40;;;;;;;28.73;18.17;;;16.70;99.90;;;;;;4838965;29;20258;-87
2021/08/17 03:33:11;;;;;;;25.67;18.17;;;16.70;99.90;;;;;;4837939;29;20201;-86
2021/08/17 03:35:39;;;;;;;25.43;18.07;;;16.70;99.90;;;;;;4823772;29;20187;-88
2021/08/17 03:38:08;;;;;;;24.63;18.83;;;16.70;99.90;;;;;;4839225;29;20214;-88
2021/08/17 03:40:38;;;;;;;27.17;18.73;;;16.70;99.90;;;;;;4835953;29;20210;-87
2021/08/17 03:43:06;;;;;;;25.23;18.70;;;16.60;99.90;;;;;;4821712;29;20209;-89
2021/08/17 03:45:35;;;;;;;27.90;18.33;;;16.60;99.90;;;;;;4829632;29;20562;-87
2021/08/17 03:48:05;;;;;;;25.63;18.53;;;16.60;99.90;;;;;;4833008;29;20194;-85
2021/08/17 03:50:36;;;;;;;25.53;18.37;;;16.60;99.90;;;;;;4835785;29;20222;-88
2021/08/17 03:53:06;;;;;;;25.90;18.60;;;16.60;99.90;;;;;;4836271;29;20221;-88
2021/08/17 03:55:34;;;;;;;24.30;17.90;;;16.50;99.90;;;;;;4835099;29;20229;-88
2021/08/17 03:58:03;;;;;;;25.70;19.17;;;16.50;99.90;;;;;;4825013;29;20532;-87
2021/08/17 04:00:33;;;;;;;27.67;19.53;;;16.50;99.90;;;;;;4835034;29;20419;-87
2021/08/17 04:03:02;;;;;;;24.33;17.83;;;16.50;99.90;;;;;;4819968;29;20219;-86
2021/08/17 04:05:31;;;;;;;23.77;18.63;;;16.50;99.90;;;;;;4833963;29;20202;-84
2021/08/17 04:08:05;;;;;;;23.77;17.23;;;16.50;99.90;;;;;;4834347;29;20210;-89
2021/08/17 04:10:34;;;;;;;24.37;18.07;;;16.50;99.90;;;;;;4823930;29;20222;-88
2021/08/17 04:13:03;;;;;;;23.77;17.90;;;16.50;99.90;;;;;;4830941;29;20583;-87
2021/08/17 04:15:31;;;;;;;25.53;17.93;;;16.50;99.90;;;;;;4825977;29;20218;-90
2021/08/17 04:18:01;;;;;;;25.17;18.17;;;16.50;99.90;;;;;;4818389;29;20229;-89
2021/08/17 04:20:32;;;;;;;26.80;17.60;;;16.50;99.90;;;;;;4840184;29;20214;-88
2021/08/17 04:23:02;;;;;;;28.00;18.07;;;16.50;99.90;;;;;;4831122;29;20210;-89
2021/08/17 04:25:31;;;;;;;26.00;18.47;;;16.50;99.90;;;;;;4839229;29;20218;-88
2021/08/17 04:28:06;;;;;;;27.17;17.70;;;16.50;99.90;;;;;;4828142;29;20222;-88
2021/08/17 04:30:35;;;;;;;23.23;17.67;;;16.50;99.90;;;;;;4831891;29;20202;-88
2021/08/17 04:33:04;;;;;;;17.37;15.13;;;16.50;99.90;;;;;;4834920;29;20464;-87
2021/08/17 04:35:33;;;;;;;19.67;15.27;;;16.50;99.90;;;;;;4836636;29;20254;-87
2021/08/17 04:38:04;;;;;;;19.27;14.97;;;16.40;99.90;;;;;;4839436;29;20230;-86
2021/08/17 04:40:32;;;;;;;22.27;14.93;;;16.30;99.90;;;;;;4840233;29;20266;-88
2021/08/17 04:43:01;;;;;;;21.10;14.37;;;16.30;99.90;;;;;;4835265;29;20206;-88
2021/08/17 04:45:31;;;;;;;21.80;13.40;;;16.30;99.90;;;;;;4830922;29;20275;-88
2021/08/17 04:48:00;;;;;;;17.97;13.07;;;16.30;99.90;;;;;;4824105;29;20190;-86
2021/08/17 04:50:29;;;;;;;18.93;12.83;;;16.30;99.90;;;;;;4826821;29;20198;-87
2021/08/17 04:52:58;;;;;;;14.03;10.43;;;16.30;99.90;;;;;;4828151;29;20217;-89
2021/08/17 04:55:28;;;;;;;13.17;10.80;;;16.20;99.90;;;;;;4826829;29;20215;-89
2021/08/17 04:57:59;;;;;;;16.13;10.50;;;16.20;99.90;;;;;;4832580;29;20241;-87
2021/08/17 05:00:29;;;;;;;15.93;10.53;;;16.20;99.90;;;;;;4833201;29;20190;-88
2021/08/17 05:03:00;;;;;;;13.90;10.33;;;16.30;99.90;;;;;;4826789;29;21211;-88
2021/08/17 05:05:29;;;;;;;11.83;9.33;;;16.30;99.90;;;;;;4833074;29;20194;-89
2021/08/17 05:07:58;;;;;;;13.43;9.87;;;16.30;99.90;;;;;;4836701;29;20210;-88
2021/08/17 05:10:29;;;;;;;16.77;9.00;;;16.30;99.90;;;;;;4831778;29;20246;-86
2021/08/17 05:12:59;;;;;;;10.63;7.30;;;16.30;99.90;;;;;;4826273;29;20202;-87
2021/08/17 05:15:29;;;;;;;8.57;7.27;;;16.20;99.90;;;;;;4824772;29;20300;-87
2021/08/17 05:17:58;;;;;;;7.53;6.53;;;16.20;99.90;;;;;;4824946;29;20254;-83
2021/08/17 05:20:27;;;;;;;9.17;6.40;;;16.10;99.90;;;;;;4830366;29;20709;-84
2021/08/17 05:22:57;;;;;;;12.40;6.77;;;16.10;99.90;;;;;;4830476;29;20222;-86
2021/08/17 05:25:25;;;;;;;9.37;6.77;;;16.10;99.90;;;;;;4819326;29;20205;-89
2021/08/17 05:27:55;;;;;;;8.27;6.60;;;16.20;99.90;;;;;;4813523;29;20217;-87
2021/08/17 05:30:25;;;;;;;8.27;6.07;;;16.30;99.90;;;;;;4816305;29;20225;-86
2021/08/17 05:32:53;;;;;;;7.10;5.70;;;16.20;99.90;;;;;;4816405;29;20737;-85
2021/08/17 05:35:22;;;;;;;6.73;5.10;;;16.10;99.90;;;;;;4814027;29;20202;-85
2021/08/17 05:37:51;;;;;;;7.23;5.20;;;16.00;99.90;;;;;;4819211;29;20261;-85
2021/08/17 05:40:20;;;;;;;5.37;4.77;;;16.00;99.90;;;;;;4817986;29;20226;-85
2021/08/17 05:42:49;;;;;;;5.90;4.80;;;15.90;99.90;;;;;;4813689;29;20241;-87
2021/08/17 05:45:19;;;;;;;5.37;4.50;;;15.80;99.90;;;;;;4811292;29;20206;-86
2021/08/17 05:47:49;;;;;;;7.60;4.63;;;15.60;99.90;;;;;;4807047;29;20650;-84
2021/08/17 05:50:18;;;;;;;8.33;4.80;;;15.60;99.90;;;;;;4801627;29;20268;-86
2021/08/17 05:52:48;;;;;;;4.97;4.23;;;15.60;99.90;;;;;;4801185;29;20210;-82
2021/08/17 05:55:21;;;;;;;5.03;4.23;;;15.60;99.90;;;;;;4803476;29;20214;-89
2021/08/17 05:57:59;;;;;;;5.93;4.57;;;15.60;99.90;;;;;;4824399;29;20214;-85
2021/08/17 06:00:29;;;;;;;6.80;4.07;;;15.60;99.90;;;;;;4827350;29;20233;-87
2021/08/17 06:03:02;;;;;;;4.70;4.30;;;15.50;99.90;;;;;;4829385;29;20225;-84
2021/08/17 06:05:33;;;;;;;6.93;4.63;;;15.60;99.90;;;;;;4813414;29;20234;-86
2021/08/17 06:08:02;;;;;;;5.23;4.57;;;15.60;99.90;;;;;;4827158;29;20387;-86
2021/08/17 06:10:31;;;;;;;5.60;4.17;;;15.60;99.90;;;;;;4815104;29;20236;-86
2021/08/17 06:12:59;;;;;;;7.07;4.60;;;15.60;99.90;;;;;;4793692;29;20214;-86
2021/08/17 06:15:30;;;;;;;6.77;4.70;;;15.70;99.90;;;;;;4800915;29;20202;-87
2021/08/17 06:18:02;;;;;;;6.10;4.47;;;15.70;99.90;;;;;;4790850;29;20388;-86
2021/08/17 06:20:31;;;;;;;6.40;4.67;;;15.70;99.90;;;;;;4789142;29;20266;-82
2021/08/17 06:23:00;;;;;;;5.20;4.07;;;15.80;99.90;;;;;;4785061;29;20635;-85
2021/08/17 06:25:30;;;;;;;6.00;4.03;;;15.80;99.90;;;;;;4791993;29;20360;-85
2021/08/17 06:27:59;;;;;;;4.97;4.27;;;15.80;99.90;;;;;;4794250;29;20445;-83
2021/08/17 06:30:29;;;;;;;5.27;3.60;;;16.00;99.90;;;;;;4795200;29;20954;-85
2021/08/17 06:32:58;;;;;;;7.83;4.50;;;16.00;99.90;;;;;;4789656;29;20211;-85
2021/08/17 06:35:27;;;;;;;5.07;3.57;;;16.10;99.90;;;;;;4797288;29;20237;-84
2021/08/17 06:37:56;;;;;;;4.63;3.30;;;16.10;99.90;;;;;;4784910;29;20426;-84
2021/08/17 06:40:26;;;;;;;5.00;3.43;;;16.10;99.90;;;;;;4793387;29;20217;-85
2021/08/17 06:42:55;;;;;;;4.00;3.00;;;15.90;99.90;;;;;;4775818;29;20255;-83
2021/08/17 06:45:29;;;;;;;5.70;3.70;;;15.90;99.90;;;;;;4781257;29;20708;-84
2021/08/17 06:47:59;;;;;;;4.53;3.63;;;16.00;99.90;;;;;;4782232;29;21035;-84
2021/08/17 06:50:44;;;;;;;3.57;2.70;;;16.10;99.90;;;;;;4783249;29;20210;-85
2021/08/17 06:53:13;;;;;;;3.67;2.63;;;16.10;99.90;;;;;;4781728;29;20415;-84
2021/08/17 06:55:42;;;;;;;3.47;2.47;;;16.00;99.90;;;;;;4787239;29;20531;-84
2021/08/17 06:58:13;;;;;;;6.47;3.00;;;16.00;99.90;;;;;;4785239;29;20210;-86
2021/08/17 07:00:45;;;;;;;2.90;2.60;;;16.00;99.90;;;;;;4782223;29;20455;-84
2021/08/17 07:03:15;;;;;;;4.00;2.80;;;16.20;99.90;;;;;;4783904;29;20218;-87
2021/08/17 07:05:46;;;;;;;5.07;2.90;;;16.30;99.90;;;;;;4785825;29;20683;-84
2021/08/17 07:08:15;;;;;;;3.50;2.50;;;16.50;94.80;;;;;;4793054;29;20215;-86
2021/08/17 07:10:46;;;;;;;4.50;2.40;;;16.60;95.00;;;;;;4791936;29;20242;-87
2021/08/17 07:13:25;;;;;;;5.17;2.37;;;16.80;95.00;;;;;;4804193;29;20207;-85
2021/08/17 07:15:55;;;;;;;4.47;2.57;;;16.80;92.70;;;;;;4806437;29;20279;-86
2021/08/17 07:18:25;;;;;;;4.27;2.37;;;16.90;94.50;;;;;;4795450;29;20218;-88
2021/08/17 07:20:55;;;;;;;3.80;2.03;;;17.00;93.40;;;;;;4792145;29;20221;-83
2021/08/17 07:23:23;;;;;;;4.07;2.20;;;16.90;90.20;;;;;;4792690;29;20411;-84
2021/08/17 07:25:52;;;;;;;6.00;2.10;;;16.90;91.90;;;;;;4797704;29;20321;-84
2021/08/17 07:28:21;;;;;;;4.40;2.30;;;16.80;90.40;;;;;;4787596;29;20687;-86
2021/08/17 07:30:50;;;;;;;4.63;1.93;;;16.80;90.00;;;;;;4792447;29;20246;-85
2021/08/17 07:33:20;;;;;;;4.93;2.40;;;16.90;90.40;;;;;;4782349;29;20206;-84
2021/08/17 07:35:50;;;;;;;4.23;2.23;;;17.00;91.80;;;;;;4785376;29;20362;-83
2021/08/17 07:38:19;;;;;;;5.97;2.23;;;17.20;90.80;;;;;;4800996;29;20310;-84
2021/08/17 07:40:48;;;;;;;3.93;2.33;;;17.30;90.70;;;;;;4792181;29;20816;-86
2021/08/17 07:43:17;;;;;;;3.27;2.20;;;17.50;88.70;;;;;;4793371;29;20263;-82
2021/08/17 07:45:45;;;;;;;4.07;2.63;;;17.60;88.20;;;;;;4797606;29;20219;-82
2021/08/17 07:48:36;;;;;;;7.47;2.50;;;17.90;90.30;;;;;;4799652;29;20222;-85
2021/08/17 07:51:05;;;;;;;5.60;2.67;;;18.30;88.70;;;;;;4792917;29;20233;-86
2021/08/17 07:53:33;;;;;;;4.07;2.67;;;18.50;87.30;;;;;;4783931;29;20218;-82
2021/08/17 07:56:02;;;;;;;6.80;2.40;;;18.50;85.40;;;;;;4785236;29;20462;-82
2021/08/17 07:58:31;;;;;;;4.73;2.10;;;18.60;86.50;;;;;;4789064;29;20217;-84
2021/08/17 08:00:59;;;;;;;5.50;3.03;;;18.70;86.20;;;;;;4791237;29;20694;-84
2021/08/17 08:03:28;;;;;;;3.50;2.60;;;18.80;84.80;;;;;;4784735;29;20779;-82
2021/08/17 08:05:59;;;;;;;4.23;2.43;;;18.80;85.60;;;;;;4789365;29;20747;-83
2021/08/17 08:08:27;;;;;;;4.20;2.53;;;18.80;85.80;;;;;;4793141;29;20215;-84
2021/08/17 08:10:56;;;;;;;4.30;2.60;;;18.90;84.70;;;;;;4783375;29;20210;-84
2021/08/17 08:13:25;;;;;;;4.77;2.80;;;18.80;83.80;;;;;;4782281;29;20210;-85
2021/08/17 08:41:48;;;;;;;3.43;2.70;;;18.60;84.50;;;;;;4579668;30;20581;-84
2021/08/17 09:12:14;;;;;;;5.33;2.40;;;18.20;82.70;;;;;;4724715;29;20755;-85
2021/08/17 09:33:14;;;;;;;4.20;3.20;;;19.00;82.70;;;;;;4697975;30;20246;-87
2021/08/17 10:03:16;;;;;;;3.90;3.37;;;18.80;83.10;;;;;;4585462;30;20293;-86
2021/08/17 10:23:43;;;;;;;4.63;3.47;;;19.40;81.90;;;;;;4523157;31;20694;-87
2021/08/17 10:44:51;;;;;;;4.30;3.27;;;19.10;81.90;;;;;;4585180;30;20211;-87
2021/08/17 11:55:42;;;;;;;6.10;4.10;;;19.50;80.10;;;;;;4533367;30;20615;-84
2021/08/17 13:18:06;;;;;;;4.07;3.20;;;20.70;77.10;;;;;;4614065;30;20227;-84
2021/08/17 13:48:38;;;;;;;4.63;3.73;;;19.60;78.80;;;;;;4699337;29;20234;-84
2021/08/17 14:14:08;;;;;;;6.00;3.90;;;19.40;78.40;;;;;;4762309;29;20209;-87
2021/08/17 14:39:52;;;;;;;5.73;3.60;;;19.20;78.60;;;;;;4760724;29;20336;-87
2021/08/17 15:05:22;;;;;;;4.90;3.53;;;19.30;78.80;;;;;;4727163;29;20214;-89
2021/08/17 15:30:47;;;;;;;4.60;3.40;;;21.10;77.40;;;;;;4778746;29;20800;-87
2021/08/17 15:56:21;;;;;;;4.53;3.10;;;20.60;77.90;;;;;;4759661;29;20205;-88
2021/08/17 16:21:56;;;;;;;5.90;3.20;;;18.90;79.00;;;;;;4718536;29;20296;-85
2021/08/17 16:47:08;;;;;;;4.63;3.50;;;18.30;80.30;;;;;;4746056;29;20282;-87
2021/08/17 17:43:15;;;;;;;4.83;4.33;;;17.20;83.80;;;;;;4673737;30;20232;-88
2021/08/17 18:08:52;;;;;;;8.37;4.77;;;16.80;85.30;;;;;;4725004;30;20255;-86
2021/08/17 18:39:45;;;;;;;6.83;4.93;;;16.30;86.80;;;;;;4786990;29;20634;-84
2021/08/17 19:00:10;;;;;;;6.53;5.20;;;16.00;87.70;;;;;;4704941;29;20220;-85
2021/08/17 19:25:25;;;;;;;5.87;4.83;;;15.90;88.00;;;;;;4609975;30;20256;-87
2021/08/17 19:56:17;;;;;;;7.83;4.83;;;15.50;89.30;;;;;;4689951;29;20236;-87
2021/08/17 20:21:50;;;;;;;5.73;5.13;;;15.30;89.90;;;;;;4751229;29;20370;-84
2021/08/17 20:52:30;;;;;;;6.67;5.37;;;15.00;90.30;;;;;;4723950;30;20853;-87
2021/08/17 20:56:54;;;;;;;6.57;5.93;;;14.90;90.60;;;;;;4714794;30;20541;-89
2021/08/17 21:12:55;;;;;;;7.40;5.80;;;14.60;92.10;;;;;;4685053;30;20881;-86
2021/08/17 21:32:57;;;;;;;7.23;6.53;;;14.30;93.10;;;;;;4594195;30;20587;-88
2021/08/17 22:23:53;;;;;;;7.60;5.83;;;14.00;93.70;;;;;;4695313;30;20284;-89
2021/08/17 22:49:38;;;;;;;7.17;6.13;;;13.90;95.50;;;;;;4706940;30;20409;-87
2021/08/17 23:09:40;;;;;;;6.80;5.10;;;13.90;94.10;;;;;;4648888;30;20710;-83
